Terminal Aerodrome Forecast
Issued by NWS Jackson, MS

Home | Current Version | Previous Version | Text Only | Print | Product List | Glossary On
Versions: 1 2 3 4 5 6 7 8 9 10 11 12 13 14 15 16 17 18 19
000
FTUS44 KMEG 300656 AAA
TAFTUP
TAF AMD
KTUP 300656Z 3007/3106 15006KT P6SM FEW050 OVC080
     FM300800 16009KT P6SM VCSH SCT025 BKN060 WS020/19045KT
      TEMPO 3008/3011 17025G35KT 6SM -SHRA BKN050
     FM301300 17011G18KT P6SM BKN025 OVC040 WS020/20050KT
     FM301800 18013G20KT P6SM VCTS SCT025CB BKN040
     FM302300 20009KT P6SM VCSH BKN035=

USA.gov is the U.S. government's official web portal to all federal, state and local government web resources and services.